MUHGMDPP

Guest
Details From MUHG - FRANK PAIS INTL
To MDPP - Puerto Plata Gregorio Luperon Intl
Flight Number -
Tags generated
Created
Modified
Stats Distance 335 nm / 620 km
Max Altitude 27,800 ft / 8,473 m
Waypoints 6
Social Downloads 0
Likes 0
Share VATSIM

Download

Looking for another format? Having issues loading an existing format? Contact us
Advertisement - Login to hide

Notes

Basic altitude profile: - Ascent Rate: 2500ft/min - Ascent Speed: 250kts - Cruise Altitude: 35000ft - Cruise Speed: 420kts - Descent Rate: 1500ft/min - Descent Speed: 250kts Options: - Use NATs: yes - Use PACOTS: yes - Use low airways: yes - Use high airways: yes

Route

MUHG UHG L212 URLAM UL212 ONPAD MDPP

ID Type Via Altitude Latitude Longitude Leg Dist Tot Dist Heading (true) Name
O MUHG APT - 0 ft / 0 m 20.78555˚ -76.31511˚ - 0 nm - FRANK PAIS INTL
UHG VOR - 300 ft / 91 m 20.79806˚ -76.30306˚ 1 nm 1 nm 42° / 42° HOLGUIN VOR-DME
URLAM FIX L212 (AWY-LO) 23,500 ft / 7,163 m 19.96528˚ -73.37167˚ 172 nm 173 nm 106° / 107° -
SINKA FIX UL212 (AWY-HI) 27,800 ft / 8,473 m 19.85861˚ -72.90833˚ 26 nm 200 nm 104° / 104° -
ONPAD FIX UL212 (AWY-HI) 13,300 ft / 4,054 m 19.60667˚ -71.74000˚ 67 nm 268 nm 103° / 103° -
O MDPP APT - 0 ft / 0 m 19.75790˚ -70.57003˚ 66 nm 334 nm 82° / 82° Puerto Plata Gregorio Luperon Intl

Altitude Profile

Advertisement - Login to hide

Weather


0- 5 10 15 20 25 30 35+ Temperature / ° C

Clouds and Precipitation
Forecast for 2017-12-15 00:00 UTC. Updated 2 hours ago

Ground ~20,000 ft ~40,000 ft Winds

MUHG

Details ICAO MUHG (HOG)
Name FRANK PAIS INTL
Region Cuba
Timezone America/Havana (UTC-5.0)
Stats Elevation 361 ft / 110 m (AMSL)
Location 20.785554° -76.315108°
Runways 1
Magnetic Variation 8.245° W

METAR

MUHG 150050Z 07007KT 9999 FEW020 BKN300 23/20 Q1017

Decode

TAF

Not found

Departure Runways

ID Width Length Bearing (true) Bearing (mag) Surface Threshold Offset Overrun Length
05 148 ft / 45 m 10,642 ft / 3,244 m 46.12° 54.37° Asphalt 328 ft / 100 m 290 ft / 88 m
23 148 ft / 45 m 10,642 ft / 3,244 m 226.12° 234.37° Asphalt 0 ft / 0 m 0 ft / 0 m

MDPP

Details ICAO MDPP (POP)
Name Puerto Plata Gregorio Luperon Intl
Region Dominican Republic
Timezone America/Santo_Domingo (UTC-4.0)
Stats Elevation 15 ft / 5 m (AMSL)
Location 19.757900° -70.570035°
Runways 1
Magnetic Variation 11.228° W

METAR

MDPP 150000Z 00000KT 9999 FEW018 26/23 Q1015

Decode

TAF

Not found

Destination Runways

ID Width Length Bearing (true) Bearing (mag) Surface Threshold Offset Overrun Length
08 151 ft / 46 m 10,101 ft / 3,079 m 72.95° 84.18° Asphalt 0 ft / 0 m 0 ft / 0 m
26 151 ft / 46 m 10,101 ft / 3,079 m 252.95° 264.18° Asphalt 0 ft / 0 m 0 ft / 0 m